createdAt,value
2022-09-06T00:00:47.109Z,78.08
2022-09-06T00:01:47.090Z,78.08
2022-09-06T00:02:47.120Z,78.19
2022-09-06T00:03:47.118Z,77.88
2022-09-06T00:04:47.048Z,78.19
2022-09-06T00:05:47.038Z,78.08
2022-09-06T00:06:47.058Z,78.19
2022-09-06T00:07:47.021Z,78.28
2022-09-06T00:08:47.033Z,78.19
2022-09-06T00:09:47.014Z,78.28
2022-09-06T00:10:47.002Z,78.59
2022-09-06T00:11:46.991Z,78.49
2022-09-06T00:12:47.021Z,78.28
2022-09-06T00:13:46.986Z,78.28
2022-09-06T00:14:46.985Z,78.32
2022-09-06T00:15:47.002Z,78.28
2022-09-06T00:16:46.967Z,78.28
2022-09-06T00:17:46.942Z,78.39
2022-09-06T00:18:46.948Z,78.72
2022-09-06T00:19:46.935Z,78.52
2022-09-06T00:20:46.915Z,78.39
2022-09-06T00:21:46.904Z,78.59
2022-09-06T00:22:46.903Z,78.49
2022-09-06T00:23:46.901Z,78.59
2022-09-06T00:24:46.920Z,78.63
2022-09-06T00:25:46.881Z,78.63
2022-09-06T00:26:46.867Z,78.72
2022-09-06T00:27:46.856Z,78.72
2022-09-06T00:28:46.863Z,78.72
2022-09-06T00:29:46.851Z,79.03
2022-09-06T00:30:46.888Z,78.83
2022-09-06T00:31:46.834Z,78.83
2022-09-06T00:32:46.819Z,78.83
2022-09-06T00:33:46.800Z,78.83
2022-09-06T00:34:46.801Z,79.13
2022-09-06T00:35:46.796Z,78.83
2022-09-06T00:36:46.815Z,79.33
2022-09-06T00:37:46.786Z,79.03
2022-09-06T00:38:46.776Z,79.13
2022-09-06T00:39:46.830Z,79.13
2022-09-06T00:40:46.753Z,79.13
2022-09-06T00:41:46.747Z,79.03
2022-09-06T00:42:46.764Z,79.43
2022-09-06T00:43:46.714Z,79.33
2022-09-06T00:44:46.715Z,79.13
2022-09-06T00:45:46.718Z,79.43
2022-09-06T00:46:46.695Z,79.23
2022-09-06T00:47:46.699Z,79.33
2022-09-06T00:48:46.685Z,79.73
2022-09-06T00:49:46.679Z,79.53
2022-09-06T00:50:46.680Z,79.63
2022-09-06T00:51:46.647Z,80.24
2022-09-06T00:52:46.661Z,79.83
2022-09-06T00:53:46.628Z,80.04
2022-09-06T00:54:46.652Z,80.04
2022-09-06T00:55:46.618Z,79.73
2022-09-06T00:56:46.623Z,80.13
2022-09-06T00:57:46.599Z,79.83
2022-09-06T00:58:46.599Z,79.69
2022-09-06T00:59:46.581Z,79.69
2022-09-06T01:00:46.605Z,79.80
2022-09-06T01:01:46.660Z,80.10
2022-09-06T01:02:46.761Z,79.80
2022-09-06T01:03:46.550Z,79.69
2022-09-06T01:04:46.557Z,79.90
2022-09-06T01:05:46.532Z,79.80
2022-09-06T01:06:46.547Z,79.69
2022-09-06T01:07:46.536Z,80.00
2022-09-06T01:08:46.514Z,79.90
2022-09-06T01:09:46.497Z,79.80
2022-09-06T01:10:46.508Z,79.80
2022-09-06T01:11:46.483Z,80.00
2022-09-06T01:12:46.497Z,79.80
2022-09-06T01:13:46.479Z,79.69
2022-09-06T01:14:46.478Z,79.90
2022-09-06T01:15:46.489Z,80.00
2022-09-06T01:16:46.446Z,79.80
2022-09-06T01:17:46.441Z,79.90
2022-09-06T01:18:46.451Z,79.80
2022-09-06T01:19:46.422Z,79.90
2022-09-06T01:20:46.422Z,79.90
2022-09-06T01:21:46.411Z,80.00
2022-09-06T01:22:46.403Z,79.90
2022-09-06T01:23:46.395Z,79.90
2022-09-06T01:24:46.488Z,80.00
2022-09-06T01:25:46.361Z,80.10
2022-09-06T01:26:46.375Z,79.90
2022-09-06T01:27:46.359Z,80.00
2022-09-06T01:28:46.355Z,80.00
2022-09-06T01:29:46.336Z,80.20
2022-09-06T01:30:46.396Z,80.00
2022-09-06T01:31:46.313Z,80.10
2022-09-06T01:32:46.303Z,80.00
2022-09-06T01:33:46.307Z,80.10
2022-09-06T01:34:46.298Z,80.00
2022-09-06T01:35:46.288Z,80.20
2022-09-06T01:37:08.349Z,80.50
2022-09-06T01:37:46.269Z,80.20
2022-09-06T01:38:46.256Z,80.20
2022-09-06T01:39:46.265Z,80.50
2022-09-06T01:40:46.250Z,80.10
2022-09-06T01:41:46.238Z,80.50
2022-09-06T01:42:46.238Z,80.50
2022-09-06T01:43:46.221Z,80.60
2022-09-06T01:44:46.213Z,80.40
2022-09-06T01:45:46.236Z,80.30
2022-09-06T01:46:46.191Z,80.30
2022-09-06T01:47:46.171Z,80.30
2022-09-06T01:48:46.205Z,80.40
2022-09-06T01:49:46.164Z,80.10
2022-09-06T01:50:46.166Z,80.20
2022-09-06T01:51:46.154Z,80.20
2022-09-06T01:52:46.145Z,80.30
2022-09-06T01:53:46.131Z,80.20
2022-09-06T01:54:46.147Z,80.20
2022-09-06T01:55:46.116Z,80.40
2022-09-06T01:56:46.104Z,80.10
2022-09-06T01:57:46.086Z,80.10
2022-09-06T01:58:46.084Z,80.20
2022-09-06T01:59:46.074Z,80.20
2022-09-06T02:00:46.099Z,80.20
2022-09-06T02:01:46.195Z,80.10
2022-09-06T02:02:46.121Z,80.20
2022-09-06T02:03:46.051Z,80.20
2022-09-06T02:04:46.049Z,80.10
2022-09-06T02:05:46.027Z,80.10
2022-09-06T02:06:46.051Z,80.30
2022-09-06T02:07:46.021Z,80.40
2022-09-06T02:08:46.013Z,80.20
2022-09-06T02:09:46.003Z,80.20
2022-09-06T02:10:45.993Z,80.20
2022-09-06T02:11:45.983Z,80.20
2022-09-06T02:12:45.979Z,80.20
2022-09-06T02:13:45.951Z,80.20
2022-09-06T02:14:45.956Z,80.20
2022-09-06T02:15:45.932Z,80.20
2022-09-06T02:16:45.988Z,80.30
2022-09-06T02:17:45.928Z,80.70
2022-09-06T02:18:45.932Z,80.30
2022-09-06T02:19:45.915Z,80.50
2022-09-06T02:20:45.907Z,80.10
2022-09-06T02:21:45.885Z,80.20
2022-09-06T02:22:45.884Z,80.36
2022-09-06T02:23:45.883Z,80.20
2022-09-06T02:24:45.876Z,80.36
2022-09-06T02:25:45.860Z,80.06
2022-09-06T02:26:45.845Z,79.96
2022-09-06T02:27:45.850Z,80.06
2022-09-06T02:28:45.840Z,80.26
2022-09-06T02:29:45.818Z,79.96
2022-09-06T02:30:45.900Z,79.96
2022-09-06T02:31:45.812Z,79.86
2022-09-06T02:32:45.801Z,79.66
2022-09-06T02:33:45.781Z,78.65
2022-09-06T02:34:45.791Z,78.65
2022-09-06T02:35:45.759Z,78.45
2022-09-06T02:36:45.793Z,78.85
2022-09-06T02:37:45.763Z,79.36
2022-09-06T02:38:45.741Z,79.25
2022-09-06T02:39:45.785Z,79.76
2022-09-06T02:40:45.735Z,79.86
2022-09-06T02:41:45.726Z,79.46
2022-09-06T02:42:45.736Z,79.66
2022-09-06T02:43:45.705Z,79.46
2022-09-06T02:44:45.706Z,79.25
2022-09-06T02:45:45.707Z,79.56
2022-09-06T02:46:45.688Z,79.76
2022-09-06T02:47:45.666Z,79.76
2022-09-06T02:48:45.675Z,79.76
2022-09-06T02:49:45.648Z,79.66
2022-09-06T02:50:45.649Z,79.86
2022-09-06T02:51:45.625Z,79.96
2022-09-06T02:52:45.625Z,79.96
2022-09-06T02:53:45.606Z,79.96
2022-09-06T02:54:45.921Z,80.06
2022-09-06T02:55:45.594Z,79.96
2022-09-06T02:56:50.198Z,79.96
2022-09-06T02:57:45.592Z,80.16
2022-09-06T02:58:45.568Z,80.16
2022-09-06T02:59:45.579Z,80.26
2022-09-06T03:00:45.583Z,80.06
2022-09-06T03:01:45.631Z,80.26
2022-09-06T03:02:45.613Z,80.36
2022-09-06T03:03:45.532Z,80.26
2022-09-06T03:04:45.526Z,80.36
2022-09-06T03:05:45.526Z,80.36
2022-09-06T03:06:45.525Z,80.46
2022-09-06T03:07:45.506Z,80.36
2022-09-06T03:08:45.482Z,80.46
2022-09-06T03:09:45.498Z,80.57
2022-09-06T03:10:45.465Z,80.66
2022-09-06T03:11:45.466Z,80.66
2022-09-06T03:12:45.463Z,80.46
2022-09-06T03:13:45.458Z,80.57
2022-09-06T03:14:45.441Z,80.57
2022-09-06T03:15:45.435Z,80.57
2022-09-06T03:16:45.452Z,80.66
2022-09-06T03:17:45.419Z,80.66
2022-09-06T03:18:45.417Z,80.57
2022-09-06T03:19:45.397Z,80.57
2022-09-06T03:20:45.378Z,80.46
2022-09-06T03:21:45.392Z,80.57
2022-09-06T03:22:45.381Z,80.70
2022-09-06T03:23:45.372Z,80.66
2022-09-06T03:24:45.374Z,80.70
2022-09-06T03:25:45.354Z,80.70
2022-09-06T03:26:45.343Z,80.70
2022-09-06T03:27:45.320Z,80.70
2022-09-06T03:28:45.324Z,80.70
2022-09-06T03:29:45.323Z,80.70
2022-09-06T03:30:45.408Z,80.80
2022-09-06T03:31:45.292Z,80.80
2022-09-06T03:32:45.272Z,80.90
2022-09-06T03:33:45.287Z,80.90
2022-09-06T03:34:45.277Z,80.80
2022-09-06T03:35:45.268Z,80.80
2022-09-06T03:36:45.264Z,80.70
2022-09-06T03:37:45.235Z,80.90
2022-09-06T03:38:45.238Z,80.90
2022-09-06T03:39:45.281Z,81.01
2022-09-06T03:40:45.207Z,80.90
2022-09-06T03:41:45.206Z,81.01
2022-09-06T03:42:45.210Z,81.21
2022-09-06T03:43:45.187Z,81.30
2022-09-06T03:44:45.175Z,81.21
2022-09-06T03:45:45.230Z,81.10
2022-09-06T03:46:45.171Z,81.10
2022-09-06T03:47:45.168Z,81.21
2022-09-06T03:48:45.148Z,81.10
2022-09-06T03:49:45.153Z,81.30
2022-09-06T03:50:45.119Z,81.30
2022-09-06T03:51:45.133Z,81.30
2022-09-06T03:52:45.108Z,81.10
2022-09-06T03:53:45.100Z,81.01
2022-09-06T03:54:45.125Z,81.10
2022-09-06T03:55:45.083Z,81.51
2022-09-06T03:56:45.085Z,81.61
2022-09-06T03:57:45.070Z,81.61
2022-09-06T03:58:45.067Z,81.61
2022-09-06T03:59:45.066Z,81.91
2022-09-06T04:00:45.231Z,81.61
2022-09-06T04:01:45.091Z,81.71
2022-09-06T04:02:45.129Z,82.01
2022-09-06T04:03:45.028Z,82.11
2022-09-06T04:04:45.019Z,81.91
2022-09-06T04:05:45.025Z,82.42
2022-09-06T04:06:45.006Z,82.31
2022-09-06T04:07:44.989Z,82.51
2022-09-06T04:08:44.976Z,82.21
2022-09-06T04:09:44.981Z,82.31
2022-09-06T04:10:44.947Z,82.31
2022-09-06T04:11:45.260Z,82.31
2022-09-06T04:12:44.969Z,82.31
2022-09-06T04:13:44.953Z,82.31
2022-09-06T04:14:44.919Z,82.62
2022-09-06T04:15:44.930Z,82.31
2022-09-06T04:16:44.969Z,82.62
2022-09-06T04:17:44.900Z,82.62
2022-09-06T04:18:44.914Z,82.71
2022-09-06T04:19:44.896Z,83.12
2022-09-06T04:20:44.884Z,82.82
2022-09-06T04:21:44.862Z,82.71
2022-09-06T04:22:44.853Z,83.22
2022-09-06T04:23:44.864Z,83.62
2022-09-06T04:24:44.857Z,83.42
2022-09-06T04:25:44.846Z,83.42
2022-09-06T04:26:44.814Z,83.52
2022-09-06T04:27:44.827Z,83.22
2022-09-06T04:28:44.806Z,83.12
2022-09-06T04:29:44.797Z,83.22
2022-09-06T04:30:44.805Z,83.62
2022-09-06T04:31:44.824Z,83.42
2022-09-06T04:32:44.769Z,83.72
2022-09-06T04:33:44.758Z,83.72
2022-09-06T04:34:44.750Z,83.62
2022-09-06T04:35:44.761Z,83.42
2022-09-06T04:36:48.344Z,83.52
2022-09-06T04:37:44.730Z,83.62
2022-09-06T04:38:44.736Z,83.42
2022-09-06T04:39:44.760Z,83.42
2022-09-06T04:40:44.698Z,83.52
2022-09-06T04:41:44.690Z,83.62
2022-09-06T04:42:44.700Z,83.62
2022-09-06T04:43:44.693Z,83.52
2022-09-06T04:44:44.675Z,83.42
2022-09-06T04:45:44.733Z,83.62
2022-09-06T04:46:44.656Z,83.52
2022-09-06T04:47:44.643Z,83.72
2022-09-06T04:48:44.652Z,83.62
2022-09-06T04:49:44.625Z,83.62
2022-09-06T04:50:44.612Z,83.42
2022-09-06T04:51:44.625Z,83.52
2022-09-06T04:52:44.594Z,83.42
2022-09-06T04:53:44.586Z,83.59
2022-09-06T04:54:44.605Z,83.72
2022-09-06T04:55:44.578Z,83.62
2022-09-06T04:56:44.577Z,83.99
2022-09-06T04:57:47.457Z,84.39
2022-09-06T04:58:44.547Z,83.99
2022-09-06T04:59:44.556Z,83.89
2022-09-06T05:00:44.639Z,84.59
2022-09-06T05:01:44.533Z,84.39
2022-09-06T05:02:44.546Z,84.39
2022-09-06T05:03:44.521Z,84.19
2022-09-06T05:04:44.503Z,84.09
2022-09-06T05:05:44.490Z,84.29
2022-09-06T05:06:44.489Z,84.49
2022-09-06T05:07:44.471Z,84.39
2022-09-06T05:08:44.461Z,84.59
2022-09-06T05:09:44.452Z,84.19
2022-09-06T05:10:44.456Z,84.39
2022-09-06T05:11:44.443Z,84.39
2022-09-06T05:12:44.555Z,84.69
2022-09-06T05:13:44.426Z,84.69
2022-09-06T05:14:44.404Z,84.39
2022-09-06T05:15:44.405Z,84.49
2022-09-06T05:16:44.431Z,84.39
2022-09-06T05:17:44.386Z,84.29
2022-09-06T05:18:44.413Z,84.29
2022-09-06T05:19:44.367Z,84.29
2022-09-06T05:20:44.357Z,84.19
2022-09-06T05:21:44.367Z,84.39
2022-09-06T05:22:44.337Z,84.29
2022-09-06T05:23:44.337Z,84.69
2022-09-06T05:24:44.362Z,84.29
2022-09-06T05:25:44.319Z,84.59
2022-09-06T05:26:44.307Z,85.00
2022-09-06T05:27:44.300Z,85.20
2022-09-06T05:28:44.302Z,85.10
2022-09-06T05:29:44.289Z,85.00
2022-09-06T05:30:44.280Z,84.80
2022-09-06T05:31:44.373Z,84.80
2022-09-06T05:32:44.253Z,84.69
2022-09-06T05:33:44.252Z,84.59
2022-09-06T05:34:44.243Z,84.80
2022-09-06T05:35:44.232Z,85.10
2022-09-06T05:36:44.252Z,84.89
2022-09-06T05:37:44.213Z,84.80
2022-09-06T05:38:44.217Z,85.00
2022-09-06T05:39:44.246Z,85.00
2022-09-06T05:40:44.197Z,85.10
2022-09-06T05:41:44.185Z,85.00
2022-09-06T05:42:44.206Z,84.89
2022-09-06T05:43:44.179Z,84.80
2022-09-06T05:44:44.156Z,84.80
2022-09-06T05:45:44.203Z,84.69
2022-09-06T05:46:44.151Z,84.69
2022-09-06T05:47:44.157Z,84.80
2022-09-06T05:48:44.130Z,84.80
2022-09-06T05:49:44.130Z,84.80
2022-09-06T05:50:44.118Z,84.69
2022-09-06T05:51:44.099Z,84.69
2022-09-06T05:52:44.088Z,84.69
2022-09-06T05:53:44.093Z,84.80
2022-09-06T05:54:44.079Z,84.80
2022-09-06T05:55:44.074Z,84.80
2022-09-06T05:56:44.065Z,84.69
2022-09-06T05:57:44.041Z,84.69
2022-09-06T05:58:44.031Z,84.69
2022-09-06T05:59:44.032Z,84.80
2022-09-06T06:00:44.065Z,84.69
2022-09-06T06:01:44.130Z,84.69
2022-09-06T06:02:44.061Z,84.69
2022-09-06T06:03:43.994Z,84.69
2022-09-06T06:04:43.983Z,84.80
2022-09-06T06:05:43.998Z,84.69
2022-09-06T06:06:43.998Z,84.69
2022-09-06T06:07:43.963Z,84.69
2022-09-06T06:08:43.945Z,84.59
2022-09-06T06:09:43.949Z,84.80
2022-09-06T06:10:43.940Z,84.75
2022-09-06T06:11:43.932Z,84.55
2022-09-06T06:12:43.927Z,84.75
2022-09-06T06:13:43.909Z,84.65
2022-09-06T06:14:43.911Z,84.55
2022-09-06T06:15:43.909Z,84.75
2022-09-06T06:16:43.964Z,84.75
2022-09-06T06:17:43.892Z,84.75
2022-09-06T06:18:45.205Z,84.75
2022-09-06T06:19:43.873Z,84.65
2022-09-06T06:20:43.840Z,84.75
2022-09-06T06:21:43.854Z,84.75
2022-09-06T06:22:43.830Z,84.95
2022-09-06T06:23:43.822Z,84.75
2022-09-06T06:24:43.836Z,84.85
2022-09-06T06:25:43.824Z,84.75
2022-09-06T06:26:43.806Z,84.75
2022-09-06T06:27:43.805Z,84.85
2022-09-06T06:28:43.775Z,84.85
2022-09-06T06:29:43.790Z,84.95
2022-09-06T06:30:43.789Z,84.85
2022-09-06T06:31:43.811Z,84.75
2022-09-06T06:32:43.759Z,84.85
2022-09-06T06:33:43.757Z,84.85
2022-09-06T06:34:43.740Z,84.91
2022-09-06T06:35:43.731Z,84.91
2022-09-06T06:36:43.740Z,85.02
2022-09-06T06:37:43.707Z,85.11
2022-09-06T06:38:43.730Z,85.11
2022-09-06T06:39:43.744Z,85.02
2022-09-06T06:40:43.682Z,85.11
2022-09-06T06:41:43.671Z,85.52
2022-09-06T06:42:43.679Z,85.11
2022-09-06T06:43:43.664Z,85.22
2022-09-06T06:44:43.653Z,85.31
2022-09-06T06:45:43.713Z,85.52
2022-09-06T06:46:43.634Z,85.52
2022-09-06T06:47:43.636Z,85.58
2022-09-06T06:48:43.630Z,85.28
2022-09-06T06:49:43.601Z,85.38
2022-09-06T06:50:43.587Z,85.38
2022-09-06T06:51:43.584Z,85.48
2022-09-06T06:52:43.573Z,85.48
2022-09-06T06:53:43.566Z,85.58
2022-09-06T06:54:43.592Z,85.38
2022-09-06T06:55:43.565Z,85.48
2022-09-06T06:56:43.548Z,85.68
2022-09-06T06:57:43.547Z,85.28
2022-09-06T06:58:43.516Z,85.08
2022-09-06T06:59:43.519Z,85.14
2022-09-06T07:00:43.626Z,85.24
2022-09-06T07:01:43.651Z,85.53
2022-09-06T07:02:43.499Z,85.64
2022-09-06T07:03:43.488Z,85.53
2022-09-06T07:04:43.482Z,85.53
2022-09-06T07:07:43.451Z,85.53
2022-09-06T07:08:43.443Z,85.44
2022-09-06T07:10:43.419Z,85.39
2022-09-06T07:11:43.411Z,85.70
2022-09-06T07:12:43.422Z,85.60
2022-09-06T07:13:43.405Z,85.50
2022-09-06T07:14:43.393Z,85.39
2022-09-06T07:15:43.386Z,85.60
2022-09-06T07:16:43.468Z,85.19
2022-09-06T07:17:43.354Z,85.16
2022-09-06T07:18:43.363Z,85.05
2022-09-06T07:21:43.325Z,84.95
2022-09-06T07:22:43.329Z,85.05
2022-09-06T07:24:43.317Z,85.02
2022-09-06T07:25:43.287Z,85.61
2022-09-06T07:27:46.368Z,84.88
2022-09-06T07:28:43.268Z,84.88
2022-09-06T07:29:43.257Z,84.77
2022-09-06T07:30:43.259Z,84.63
2022-09-06T07:32:43.243Z,84.33
2022-09-06T07:33:43.221Z,83.93
2022-09-06T07:34:43.210Z,84.39
2022-09-06T07:35:43.214Z,84.29
2022-09-06T07:36:43.212Z,84.39
2022-09-06T07:37:43.192Z,84.59
2022-09-06T07:38:43.183Z,84.45
2022-09-06T07:39:43.274Z,84.25
2022-09-06T07:40:43.177Z,84.15
2022-09-06T07:41:43.177Z,84.35
2022-09-06T07:42:43.154Z,84.65
2022-09-06T07:43:43.151Z,84.55
2022-09-06T07:44:43.125Z,84.11
2022-09-06T07:45:43.115Z,84.41
2022-09-06T07:46:43.233Z,84.61
2022-09-06T07:47:58.882Z,84.71
2022-09-06T07:48:43.131Z,84.71
2022-09-06T07:51:43.072Z,84.47
2022-09-06T07:53:43.065Z,84.27
2022-09-06T07:54:43.071Z,83.97
2022-09-06T07:55:43.046Z,83.87
2022-09-06T07:56:43.031Z,83.83
2022-09-06T07:57:43.012Z,83.87
2022-09-06T07:58:43.010Z,83.83
2022-09-06T07:59:43.146Z,83.73
2022-09-06T08:00:43.053Z,83.63
2022-09-06T08:01:43.056Z,83.83
2022-09-06T08:02:42.973Z,83.63
2022-09-06T08:03:42.963Z,83.43
2022-09-06T08:04:42.964Z,83.43
2022-09-06T08:07:42.940Z,83.09
2022-09-06T08:08:58.918Z,82.69
2022-09-06T08:09:42.915Z,83.09
2022-09-06T08:10:42.906Z,83.09
2022-09-06T08:11:42.910Z,83.49
2022-09-06T08:12:42.930Z,83.39
2022-09-06T08:13:42.892Z,83.19
2022-09-06T08:14:42.891Z,83.49
2022-09-06T08:15:42.858Z,83.49
2022-09-06T08:16:42.914Z,83.39
2022-09-06T08:17:42.839Z,82.69
2022-09-06T08:18:42.862Z,82.49
2022-09-06T08:19:42.828Z,82.19
2022-09-06T08:20:42.834Z,81.99
2022-09-06T08:21:42.838Z,82.49
2022-09-06T08:22:42.835Z,82.79
2022-09-06T08:23:42.795Z,82.99
2022-09-06T08:24:42.811Z,82.99
2022-09-06T08:25:42.776Z,83.09
2022-09-06T08:26:42.786Z,83.29
2022-09-06T08:27:42.767Z,83.49
2022-09-06T08:28:42.779Z,83.25
2022-09-06T08:29:42.779Z,83.45
2022-09-06T08:30:42.798Z,83.55
2022-09-06T08:31:42.848Z,83.55
2022-09-06T08:32:42.729Z,83.75
2022-09-06T08:33:42.708Z,83.55
2022-09-06T08:34:42.710Z,83.55
2022-09-06T08:35:42.688Z,83.71
2022-09-06T08:36:42.711Z,83.81
2022-09-06T08:37:42.690Z,83.81
2022-09-06T08:38:42.757Z,83.71
2022-09-06T08:39:42.712Z,83.31
2022-09-06T08:40:42.651Z,82.71
2022-09-06T08:41:42.655Z,82.71
2022-09-06T08:42:42.651Z,82.81
2022-09-06T08:43:42.634Z,82.81
2022-09-06T08:44:58.442Z,82.71
2022-09-06T08:45:42.616Z,82.81
2022-09-06T08:46:42.712Z,82.71
2022-09-06T08:47:42.605Z,82.91
2022-09-06T08:48:42.605Z,82.95
2022-09-06T08:49:42.572Z,82.85
2022-09-06T08:50:42.571Z,82.85
2022-09-06T08:51:42.554Z,82.85
2022-09-06T08:52:54.430Z,82.75
2022-09-06T08:53:42.546Z,82.85
2022-09-06T08:54:42.567Z,82.75
2022-09-06T08:55:42.516Z,82.85
2022-09-06T08:56:42.516Z,82.85
2022-09-06T08:57:42.498Z,82.99
2022-09-06T08:58:42.497Z,82.89
2022-09-06T08:59:42.487Z,82.89
2022-09-06T09:00:42.547Z,82.99
2022-09-06T09:01:42.500Z,82.99
2022-09-06T09:02:42.469Z,82.99
2022-09-06T09:03:42.548Z,82.89
2022-09-06T09:04:42.462Z,82.99
2022-09-06T09:05:42.435Z,82.99
2022-09-06T09:06:42.450Z,82.99
2022-09-06T09:07:42.413Z,82.89
2022-09-06T09:08:42.426Z,83.09
2022-09-06T09:09:42.406Z,83.13
2022-09-06T09:10:42.407Z,83.13
2022-09-06T09:11:42.383Z,83.13
2022-09-06T09:12:42.394Z,83.13
2022-09-06T09:13:42.364Z,82.93
2022-09-06T09:14:42.378Z,82.93
2022-09-06T09:15:42.346Z,82.93
2022-09-06T09:16:42.393Z,82.83
2022-09-06T09:17:42.325Z,82.83
2022-09-06T09:18:42.348Z,82.83
2022-09-06T09:19:42.316Z,82.87
2022-09-06T09:20:42.308Z,82.77
2022-09-06T09:21:42.311Z,82.77
2022-09-06T09:22:42.302Z,82.87
2022-09-06T09:23:42.293Z,82.97
2022-09-06T09:24:42.288Z,82.97
2022-09-06T09:25:42.274Z,82.97
2022-09-06T09:26:42.272Z,82.97
2022-09-06T09:27:42.256Z,83.07
2022-09-06T09:28:42.240Z,83.17
2022-09-06T09:30:49.852Z,83.61
2022-09-06T09:31:42.240Z,83.61
2022-09-06T09:32:42.217Z,83.71
2022-09-06T09:33:42.193Z,83.71
2022-09-06T09:34:42.192Z,83.71
2022-09-06T09:35:42.191Z,83.81
2022-09-06T09:38:42.157Z,84.01
2022-09-06T09:39:42.175Z,84.01
2022-09-06T09:40:42.150Z,84.01
2022-09-06T09:41:42.142Z,84.01
2022-09-06T09:42:42.126Z,84.21
2022-09-06T09:43:42.108Z,84.11
2022-09-06T09:44:42.105Z,84.01
2022-09-06T09:45:42.088Z,84.01
2022-09-06T09:46:42.171Z,84.11
2022-09-06T09:47:42.083Z,84.11
2022-09-06T09:48:42.093Z,84.11
2022-09-06T09:49:42.063Z,84.21
2022-09-06T09:50:42.064Z,84.21
2022-09-06T09:51:42.056Z,84.21
2022-09-06T09:52:42.045Z,84.31
2022-09-06T09:53:42.036Z,84.31
2022-09-06T09:54:42.034Z,84.31
2022-09-06T09:55:42.016Z,84.41
2022-09-06T09:56:42.003Z,84.41
2022-09-06T09:57:41.990Z,84.31
2022-09-06T09:58:41.997Z,84.31
2022-09-06T09:59:41.972Z,84.21
2022-09-06T10:00:42.000Z,84.31
2022-09-06T10:01:41.952Z,84.21
2022-09-06T10:02:41.961Z,84.21
2022-09-06T10:05:41.916Z,84.25
2022-09-06T10:07:41.903Z,84.35
2022-09-06T10:08:41.898Z,84.35
2022-09-06T10:09:41.896Z,84.35
2022-09-06T10:10:41.893Z,84.35
2022-09-06T10:11:41.868Z,84.35
2022-09-06T10:12:41.893Z,84.35
2022-09-06T10:13:41.871Z,84.35
2022-09-06T10:14:41.841Z,84.35
2022-09-06T10:15:41.867Z,84.35
2022-09-06T10:16:41.843Z,84.45
2022-09-06T10:17:41.825Z,84.45
2022-09-06T10:18:41.940Z,84.45
2022-09-06T10:19:41.795Z,84.35
2022-09-06T10:20:41.793Z,84.35
2022-09-06T10:21:41.787Z,84.45
2022-09-06T10:22:41.787Z,84.55
2022-09-06T10:24:41.778Z,84.45
2022-09-06T10:25:43.957Z,84.55
2022-09-06T10:26:41.737Z,84.55
2022-09-06T10:27:55.525Z,84.55
2022-09-06T10:28:41.738Z,84.75
2022-09-06T10:29:41.707Z,84.85
2022-09-06T10:30:41.731Z,85.01
2022-09-06T10:31:41.734Z,84.81
2022-09-06T10:32:41.692Z,84.81
2022-09-06T10:33:41.677Z,84.81
2022-09-06T10:34:41.670Z,84.81
2022-09-06T10:35:41.660Z,85.01
2022-09-06T10:36:41.678Z,85.01
2022-09-06T10:37:41.654Z,84.91
2022-09-06T10:38:41.640Z,85.11
2022-09-06T10:39:41.686Z,85.21
2022-09-06T10:40:41.635Z,85.21
2022-09-06T10:41:41.616Z,85.41
2022-09-06T10:42:41.634Z,85.21
2022-09-06T10:43:41.607Z,85.21
2022-09-06T10:44:41.583Z,85.11
2022-09-06T10:45:41.589Z,85.01
2022-09-06T10:46:41.649Z,85.07
2022-09-06T10:47:41.568Z,85.07
2022-09-06T10:48:41.575Z,85.07
2022-09-06T10:49:41.536Z,85.27
2022-09-06T10:50:41.536Z,85.37
2022-09-06T10:51:41.529Z,85.47
2022-09-06T10:52:41.518Z,85.57
2022-09-06T10:53:41.521Z,85.83
2022-09-06T10:54:41.641Z,86.13
2022-09-06T10:55:41.502Z,85.93
2022-09-06T10:56:41.492Z,86.03
2022-09-06T10:59:41.514Z,85.39
2022-09-06T11:00:41.461Z,85.39
2022-09-06T11:01:41.549Z,85.49
2022-09-06T11:02:41.618Z,85.49
2022-09-06T11:04:00.171Z,85.45
2022-09-06T11:05:41.418Z,85.55
2022-09-06T11:06:41.412Z,85.55
2022-09-06T11:07:41.468Z,85.55
2022-09-06T11:08:49.100Z,85.45
2022-09-06T11:09:41.378Z,85.45
2022-09-06T11:10:41.379Z,85.45
2022-09-06T11:11:41.359Z,85.31
2022-09-06T11:12:41.355Z,85.21
2022-09-06T11:13:41.350Z,85.41
2022-09-06T11:14:41.330Z,85.41
2022-09-06T11:15:41.386Z,85.31
2022-09-06T11:16:41.323Z,85.01
2022-09-06T11:17:41.298Z,84.71
2022-09-06T11:18:41.317Z,85.01
2022-09-06T11:19:41.279Z,84.91
2022-09-06T11:20:41.292Z,84.91
2022-09-06T11:21:41.260Z,84.41
2022-09-06T11:22:41.262Z,84.31
2022-09-06T11:23:41.254Z,84.51
2022-09-06T11:24:41.251Z,84.67
2022-09-06T11:25:41.244Z,84.87
2022-09-06T11:26:41.232Z,84.87
2022-09-06T11:27:41.220Z,84.87
2022-09-06T11:28:41.225Z,84.67
2022-09-06T11:29:41.206Z,84.07
2022-09-06T11:30:41.265Z,83.97
2022-09-06T11:32:41.175Z,83.73
2022-09-06T11:33:41.179Z,84.17
2022-09-06T11:34:41.177Z,83.73
2022-09-06T11:35:41.167Z,84.03
2022-09-06T11:36:41.161Z,84.23
2022-09-06T11:37:41.151Z,84.23
2022-09-06T11:38:41.127Z,84.23
2022-09-06T11:40:41.108Z,84.33
2022-09-06T11:41:41.112Z,83.53
2022-09-06T11:42:41.101Z,82.93
2022-09-06T11:43:41.091Z,83.43
2022-09-06T11:44:41.070Z,83.53
2022-09-06T11:45:41.071Z,83.63
2022-09-06T11:46:41.137Z,83.97
2022-09-06T11:47:41.067Z,84.17
2022-09-06T11:48:41.065Z,83.73
2022-09-06T11:49:41.046Z,83.27
2022-09-06T11:50:41.036Z,83.33
2022-09-06T11:51:41.035Z,83.37
2022-09-06T11:52:41.017Z,83.37
2022-09-06T11:53:41.015Z,83.27
2022-09-06T11:54:41.011Z,83.37
2022-09-06T11:55:40.998Z,83.57
2022-09-06T11:56:40.988Z,83.17
2022-09-06T11:57:40.966Z,82.97
2022-09-06T11:58:40.955Z,82.97
2022-09-06T11:59:40.969Z,83.07
2022-09-06T12:00:40.947Z,82.97
2022-09-06T12:01:40.994Z,82.97
2022-09-06T12:02:41.169Z,82.97
2022-09-06T12:04:40.907Z,83.27
2022-09-06T12:05:40.912Z,83.27
2022-09-06T12:06:41.029Z,83.27
2022-09-06T12:07:40.901Z,83.37
2022-09-06T12:08:40.887Z,83.47
2022-09-06T12:09:40.862Z,83.27
2022-09-06T12:10:40.869Z,83.17
2022-09-06T12:11:40.865Z,83.07
2022-09-06T12:12:40.853Z,83.07
2022-09-06T12:13:40.847Z,83.07
2022-09-06T12:14:40.836Z,83.07
2022-09-06T12:15:40.848Z,83.17
2022-09-06T12:16:40.804Z,83.17
2022-09-06T12:17:40.796Z,83.27
2022-09-06T12:18:40.794Z,83.27
2022-09-06T12:19:44.065Z,83.37
2022-09-06T12:20:40.766Z,83.37
2022-09-06T12:21:40.764Z,83.61
2022-09-06T12:22:40.760Z,83.71
2022-09-06T12:23:40.760Z,83.71
2022-09-06T12:24:40.837Z,83.71
2022-09-06T12:25:40.727Z,83.61
2022-09-06T12:26:40.719Z,83.61
2022-09-06T12:27:40.724Z,83.61
2022-09-06T12:28:40.713Z,83.71
2022-09-06T12:29:40.701Z,83.71
2022-09-06T12:30:40.705Z,83.61
2022-09-06T12:31:40.717Z,83.61
2022-09-06T12:32:40.661Z,83.61
2022-09-06T12:33:40.677Z,83.51
2022-09-06T12:34:40.666Z,83.51
2022-09-06T12:36:40.668Z,83.51
2022-09-06T12:37:40.624Z,83.51
2022-09-06T12:38:40.616Z,83.61
2022-09-06T12:39:40.633Z,83.61
2022-09-06T12:40:40.608Z,83.65
2022-09-06T12:41:43.476Z,83.65
2022-09-06T12:42:40.601Z,83.75
2022-09-06T12:43:40.576Z,83.65
2022-09-06T12:44:40.581Z,83.65
2022-09-06T12:45:40.557Z,83.65
2022-09-06T12:46:40.582Z,83.65
2022-09-06T12:47:40.540Z,83.65
2022-09-06T12:48:40.552Z,83.55
2022-09-06T12:49:40.522Z,83.55
2022-09-06T12:50:40.510Z,83.65
2022-09-06T12:51:40.511Z,83.65
2022-09-06T12:52:40.490Z,83.65
2022-09-06T12:53:40.509Z,83.75
2022-09-06T12:54:40.493Z,83.85
2022-09-06T12:55:40.473Z,83.95
2022-09-06T12:56:40.462Z,83.95
2022-09-06T12:57:40.466Z,83.95
2022-09-06T12:58:40.443Z,84.05
2022-09-06T12:59:40.443Z,83.95
2022-09-06T13:00:40.459Z,83.99
2022-09-06T13:01:40.521Z,84.09
2022-09-06T13:02:40.476Z,84.09
2022-09-06T13:03:40.405Z,84.09
2022-09-06T13:04:40.406Z,84.09
2022-09-06T13:05:40.386Z,84.09
2022-09-06T13:06:40.395Z,84.19
2022-09-06T13:07:40.381Z,84.19
2022-09-06T13:08:40.371Z,84.19
2022-09-06T13:09:40.371Z,84.19
2022-09-06T13:10:40.352Z,84.19
2022-09-06T13:11:40.339Z,84.19
2022-09-06T13:12:40.343Z,84.19
2022-09-06T13:13:40.333Z,84.39
2022-09-06T13:14:40.319Z,84.39
2022-09-06T13:15:40.331Z,84.39
2022-09-06T13:16:40.305Z,84.39
2022-09-06T13:17:40.296Z,84.49
2022-09-06T13:18:40.282Z,84.39
2022-09-06T13:19:40.299Z,84.79